sensor_id;sensor_type;location;lat;lon;timestamp;P1;durP1;ratioP1;P2;durP2;ratioP2
6953;SDS011;3516;47.980;8.808;2023-04-25T04:00:07;1.60;;;1.60;;
6953;SDS011;3516;47.980;8.808;2023-04-25T04:02:34;2.25;;;1.67;;
6953;SDS011;3516;47.980;8.808;2023-04-25T04:05:03;1.55;;;1.55;;
6953;SDS011;3516;47.980;8.808;2023-04-25T04:07:31;1.27;;;1.27;;
6953;SDS011;3516;47.980;8.808;2023-04-25T04:09:58;1.42;;;1.42;;
6953;SDS011;3516;47.980;8.808;2023-04-25T04:12:25;2.00;;;1.90;;
6953;SDS011;3516;47.980;8.808;2023-04-25T04:14:52;1.83;;;1.73;;
6953;SDS011;3516;47.980;8.808;2023-04-25T04:17:20;1.95;;;1.92;;
6953;SDS011;3516;47.980;8.808;2023-04-25T04:19:46;2.10;;;2.00;;
6953;SDS011;3516;47.980;8.808;2023-04-25T04:22:13;2.00;;;1.80;;
6953;SDS011;3516;47.980;8.808;2023-04-25T04:24:40;1.73;;;1.65;;
6953;SDS011;3516;47.980;8.808;2023-04-25T04:27:08;1.60;;;1.60;;
6953;SDS011;3516;47.980;8.808;2023-04-25T04:29:35;1.50;;;1.50;;
6953;SDS011;3516;47.980;8.808;2023-04-25T04:32:02;1.77;;;1.77;;
6953;SDS011;3516;47.980;8.808;2023-04-25T04:34:31;1.73;;;1.63;;
6953;SDS011;3516;47.980;8.808;2023-04-25T04:36:58;1.75;;;1.67;;
6953;SDS011;3516;47.980;8.808;2023-04-25T04:39:25;1.70;;;1.60;;
6953;SDS011;3516;47.980;8.808;2023-04-25T04:41:52;1.52;;;1.52;;
6953;SDS011;3516;47.980;8.808;2023-04-25T04:44:19;1.83;;;1.83;;
6953;SDS011;3516;47.980;8.808;2023-04-25T04:46:45;2.20;;;2.10;;
6953;SDS011;3516;47.980;8.808;2023-04-25T04:49:13;1.98;;;1.45;;
6953;SDS011;3516;47.980;8.808;2023-04-25T04:51:41;1.58;;;1.58;;
6953;SDS011;3516;47.980;8.808;2023-04-25T04:54:09;1.88;;;1.77;;
6953;SDS011;3516;47.980;8.808;2023-04-25T04:56:36;1.98;;;1.98;;
6953;SDS011;3516;47.980;8.808;2023-04-25T04:59:02;1.95;;;1.85;;
6953;SDS011;3516;47.980;8.808;2023-04-25T05:01:29;1.90;;;1.90;;
6953;SDS011;3516;47.980;8.808;2023-04-25T05:03:56;1.75;;;1.75;;
6953;SDS011;3516;47.980;8.808;2023-04-25T05:06:25;1.80;;;1.80;;
6953;SDS011;3516;47.980;8.808;2023-04-25T05:08:55;1.65;;;1.65;;
6953;SDS011;3516;47.980;8.808;2023-04-25T14:41:40;0.82;;;0.82;;
6953;SDS011;3516;47.980;8.808;2023-04-25T14:44:07;0.90;;;0.80;;
6953;SDS011;3516;47.980;8.808;2023-04-25T14:46:35;1.10;;;0.80;;
6953;SDS011;3516;47.980;8.808;2023-04-25T14:49:02;0.95;;;0.70;;
6953;SDS011;3516;47.980;8.808;2023-04-25T14:51:30;0.80;;;0.80;;
6953;SDS011;3516;47.980;8.808;2023-04-25T14:53:57;1.00;;;0.88;;
6953;SDS011;3516;47.980;8.808;2023-04-25T14:56:24;0.80;;;0.80;;
6953;SDS011;3516;47.980;8.808;2023-04-25T14:58:52;1.00;;;1.00;;
6953;SDS011;3516;47.980;8.808;2023-04-25T15:01:20;0.80;;;0.80;;
6953;SDS011;3516;47.980;8.808;2023-04-25T15:03:47;0.75;;;0.75;;
6953;SDS011;3516;47.980;8.808;2023-04-25T15:06:14;1.25;;;1.15;;
6953;SDS011;3516;47.980;8.808;2023-04-25T15:08:41;3.33;;;2.05;;
6953;SDS011;3516;47.980;8.808;2023-04-25T15:11:08;1.23;;;1.23;;
6953;SDS011;3516;47.980;8.808;2023-04-25T15:13:35;1.00;;;1.00;;
6953;SDS011;3516;47.980;8.808;2023-04-25T15:16:04;2.28;;;0.82;;
6953;SDS011;3516;47.980;8.808;2023-04-25T15:18:31;0.70;;;0.70;;
6953;SDS011;3516;47.980;8.808;2023-04-25T15:20:58;0.70;;;0.70;;
6953;SDS011;3516;47.980;8.808;2023-04-25T15:23:25;0.68;;;0.68;;
6953;SDS011;3516;47.980;8.808;2023-04-25T15:25:51;2.90;;;0.60;;
6953;SDS011;3516;47.980;8.808;2023-04-25T15:28:18;0.60;;;0.60;;
6953;SDS011;3516;47.980;8.808;2023-04-25T15:30:46;0.63;;;0.63;;
6953;SDS011;3516;47.980;8.808;2023-04-25T15:33:14;0.63;;;0.63;;
6953;SDS011;3516;47.980;8.808;2023-04-25T15:35:41;0.60;;;0.60;;
6953;SDS011;3516;47.980;8.808;2023-04-25T15:38:08;0.50;;;0.50;;
6953;SDS011;3516;47.980;8.808;2023-04-25T15:40:36;0.50;;;0.50;;
6953;SDS011;3516;47.980;8.808;2023-04-25T15:43:03;0.50;;;0.50;;
6953;SDS011;3516;47.980;8.808;2023-04-25T15:45:31;0.40;;;0.40;;
6953;SDS011;3516;47.980;8.808;2023-04-25T15:47:58;4.18;;;0.52;;
6953;SDS011;3516;47.980;8.808;2023-04-25T15:50:27;0.68;;;0.40;;
6953;SDS011;3516;47.980;8.808;2023-04-25T15:52:57;0.60;;;0.60;;
6953;SDS011;3516;47.980;8.808;2023-04-25T15:55:23;1.88;;;0.40;;
6953;SDS011;3516;47.980;8.808;2023-04-25T15:57:51;0.50;;;0.50;;
6953;SDS011;3516;47.980;8.808;2023-04-25T16:00:18;0.75;;;0.40;;
6953;SDS011;3516;47.980;8.808;2023-04-25T16:02:46;0.45;;;0.45;;
6953;SDS011;3516;47.980;8.808;2023-04-25T16:05:13;0.40;;;0.40;;
6953;SDS011;3516;47.980;8.808;2023-04-25T16:07:42;0.40;;;0.40;;
6953;SDS011;3516;47.980;8.808;2023-04-25T16:10:09;0.40;;;0.40;;
6953;SDS011;3516;47.980;8.808;2023-04-25T16:12:37;0.35;;;0.35;;
6953;SDS011;3516;47.980;8.808;2023-04-25T16:15:05;0.52;;;0.52;;
6953;SDS011;3516;47.980;8.808;2023-04-25T16:17:32;1.17;;;0.80;;
6953;SDS011;3516;47.980;8.808;2023-04-25T16:19:59;1.13;;;1.13;;
6953;SDS011;3516;47.980;8.808;2023-04-25T16:22:34;1.10;;;1.10;;
6953;SDS011;3516;47.980;8.808;2023-04-25T16:25:02;1.50;;;1.10;;
6953;SDS011;3516;47.980;8.808;2023-04-25T16:27:29;1.08;;;1.08;;
6953;SDS011;3516;47.980;8.808;2023-04-25T16:29:58;0.50;;;0.50;;
6953;SDS011;3516;47.980;8.808;2023-04-25T16:32:25;1.10;;;1.10;;
6953;SDS011;3516;47.980;8.808;2023-04-25T16:34:52;1.17;;;1.17;;
6953;SDS011;3516;47.980;8.808;2023-04-25T16:37:18;0.98;;;0.98;;
6953;SDS011;3516;47.980;8.808;2023-04-25T16:39:45;1.27;;;0.95;;
6953;SDS011;3516;47.980;8.808;2023-04-25T16:42:13;1.00;;;1.00;;
6953;SDS011;3516;47.980;8.808;2023-04-25T16:44:40;0.90;;;0.90;;
6953;SDS011;3516;47.980;8.808;2023-04-25T16:47:07;0.80;;;0.80;;
6953;SDS011;3516;47.980;8.808;2023-04-25T16:49:33;0.98;;;0.98;;
6953;SDS011;3516;47.980;8.808;2023-04-25T16:52:00;1.20;;;1.20;;
6953;SDS011;3516;47.980;8.808;2023-04-25T16:54:27;0.70;;;0.70;;
6953;SDS011;3516;47.980;8.808;2023-04-25T16:56:55;0.98;;;0.98;;
6953;SDS011;3516;47.980;8.808;2023-04-25T16:59:23;0.90;;;0.90;;
6953;SDS011;3516;47.980;8.808;2023-04-25T17:01:50;0.90;;;0.80;;
6953;SDS011;3516;47.980;8.808;2023-04-25T17:04:17;1.52;;;1.05;;
6953;SDS011;3516;47.980;8.808;2023-04-25T17:06:43;1.10;;;0.90;;
6953;SDS011;3516;47.980;8.808;2023-04-25T17:09:10;0.93;;;0.93;;
6953;SDS011;3516;47.980;8.808;2023-04-25T17:11:37;1.33;;;1.20;;
6953;SDS011;3516;47.980;8.808;2023-04-25T17:14:03;1.13;;;1.13;;
6953;SDS011;3516;47.980;8.808;2023-04-25T17:16:35;2.80;;;1.00;;
6953;SDS011;3516;47.980;8.808;2023-04-25T17:19:03;0.80;;;0.80;;
6953;SDS011;3516;47.980;8.808;2023-04-25T17:21:29;1.13;;;1.02;;
6953;SDS011;3516;47.980;8.808;2023-04-25T17:23:57;1.27;;;1.20;;
6953;SDS011;3516;47.980;8.808;2023-04-25T17:26:24;2.35;;;1.00;;
6953;SDS011;3516;47.980;8.808;2023-04-25T17:28:51;0.90;;;0.80;;
6953;SDS011;3516;47.980;8.808;2023-04-25T17:31:18;2.25;;;0.60;;
6953;SDS011;3516;47.980;8.808;2023-04-25T17:33:46;0.80;;;0.80;;
6953;SDS011;3516;47.980;8.808;2023-04-25T17:36:13;0.70;;;0.70;;
6953;SDS011;3516;47.980;8.808;2023-04-25T17:38:40;0.85;;;0.85;;
6953;SDS011;3516;47.980;8.808;2023-04-25T17:41:07;0.85;;;0.80;;
6953;SDS011;3516;47.980;8.808;2023-04-25T17:43:34;0.95;;;0.95;;
6953;SDS011;3516;47.980;8.808;2023-04-25T17:46:01;1.02;;;0.95;;
6953;SDS011;3516;47.980;8.808;2023-04-25T17:48:28;1.15;;;1.15;;
6953;SDS011;3516;47.980;8.808;2023-04-25T17:50:57;0.63;;;0.63;;
6953;SDS011;3516;47.980;8.808;2023-04-25T17:53:24;1.00;;;1.00;;
6953;SDS011;3516;47.980;8.808;2023-04-25T17:55:50;0.80;;;0.73;;
6953;SDS011;3516;47.980;8.808;2023-04-25T17:58:17;0.90;;;0.90;;
6953;SDS011;3516;47.980;8.808;2023-04-25T18:00:44;0.70;;;0.70;;
6953;SDS011;3516;47.980;8.808;2023-04-25T18:03:10;0.70;;;0.70;;
6953;SDS011;3516;47.980;8.808;2023-04-25T18:05:37;0.80;;;0.80;;
6953;SDS011;3516;47.980;8.808;2023-04-25T18:08:06;1.55;;;0.80;;
6953;SDS011;3516;47.980;8.808;2023-04-25T18:10:33;1.00;;;1.00;;
6953;SDS011;3516;47.980;8.808;2023-04-25T18:13:00;0.70;;;0.70;;
6953;SDS011;3516;47.980;8.808;2023-04-25T18:15:27;0.60;;;0.60;;
6953;SDS011;3516;47.980;8.808;2023-04-25T18:17:53;0.90;;;0.90;;
6953;SDS011;3516;47.980;8.808;2023-04-25T18:20:21;0.80;;;0.80;;
6953;SDS011;3516;47.980;8.808;2023-04-25T18:22:48;0.95;;;0.95;;
6953;SDS011;3516;47.980;8.808;2023-04-25T18:25:17;1.13;;;1.13;;
6953;SDS011;3516;47.980;8.808;2023-04-25T18:27:44;0.80;;;0.80;;
6953;SDS011;3516;47.980;8.808;2023-04-25T18:30:11;0.73;;;0.73;;
6953;SDS011;3516;47.980;8.808;2023-04-25T18:32:38;0.80;;;0.80;;
6953;SDS011;3516;47.980;8.808;2023-04-25T18:35:06;1.05;;;1.05;;
6953;SDS011;3516;47.980;8.808;2023-04-25T18:37:34;0.77;;;0.77;;
6953;SDS011;3516;47.980;8.808;2023-04-25T18:40:02;0.90;;;0.90;;
6953;SDS011;3516;47.980;8.808;2023-04-25T18:42:33;0.77;;;0.77;;
6953;SDS011;3516;47.980;8.808;2023-04-25T18:45:01;0.80;;;0.80;;
6953;SDS011;3516;47.980;8.808;2023-04-25T18:47:29;0.85;;;0.85;;
6953;SDS011;3516;47.980;8.808;2023-04-25T18:49:56;0.80;;;0.80;;
6953;SDS011;3516;47.980;8.808;2023-04-25T18:52:23;0.90;;;0.90;;
6953;SDS011;3516;47.980;8.808;2023-04-25T18:54:50;0.80;;;0.80;;
6953;SDS011;3516;47.980;8.808;2023-04-25T18:57:17;0.80;;;0.80;;
6953;SDS011;3516;47.980;8.808;2023-04-25T18:59:46;0.70;;;0.70;;
6953;SDS011;3516;47.980;8.808;2023-04-25T19:02:12;0.70;;;0.70;;
6953;SDS011;3516;47.980;8.808;2023-04-25T19:04:40;0.80;;;0.80;;
6953;SDS011;3516;47.980;8.808;2023-04-25T19:07:07;0.60;;;0.60;;
6953;SDS011;3516;47.980;8.808;2023-04-25T19:09:33;0.85;;;0.85;;
6953;SDS011;3516;47.980;8.808;2023-04-25T19:12:00;0.85;;;0.85;;
6953;SDS011;3516;47.980;8.808;2023-04-25T19:14:29;0.70;;;0.70;;
6953;SDS011;3516;47.980;8.808;2023-04-25T19:16:58;0.90;;;0.90;;
6953;SDS011;3516;47.980;8.808;2023-04-25T19:19:25;1.10;;;1.10;;
6953;SDS011;3516;47.980;8.808;2023-04-25T19:21:52;0.90;;;0.90;;
6953;SDS011;3516;47.980;8.808;2023-04-25T19:24:18;0.90;;;0.90;;
6953;SDS011;3516;47.980;8.808;2023-04-25T19:26:46;1.25;;;0.90;;
6953;SDS011;3516;47.980;8.808;2023-04-25T19:29:13;0.75;;;0.75;;
6953;SDS011;3516;47.980;8.808;2023-04-25T19:31:41;0.88;;;0.88;;
6953;SDS011;3516;47.980;8.808;2023-04-25T19:34:10;0.95;;;0.95;;
6953;SDS011;3516;47.980;8.808;2023-04-25T19:36:38;0.90;;;0.90;;
6953;SDS011;3516;47.980;8.808;2023-04-25T19:39:06;0.90;;;0.90;;
6953;SDS011;3516;47.980;8.808;2023-04-25T19:41:34;0.85;;;0.80;;
6953;SDS011;3516;47.980;8.808;2023-04-25T19:44:02;0.82;;;0.82;;
6953;SDS011;3516;47.980;8.808;2023-04-25T19:46:30;1.05;;;1.05;;
6953;SDS011;3516;47.980;8.808;2023-04-25T19:48:57;0.70;;;0.70;;
6953;SDS011;3516;47.980;8.808;2023-04-25T19:51:26;0.90;;;0.90;;
6953;SDS011;3516;47.980;8.808;2023-04-25T19:53:55;1.10;;;1.10;;
6953;SDS011;3516;47.980;8.808;2023-04-25T19:56:21;1.05;;;1.05;;
6953;SDS011;3516;47.980;8.808;2023-04-25T19:58:49;1.05;;;1.05;;
6953;SDS011;3516;47.980;8.808;2023-04-25T20:01:16;0.65;;;0.65;;
6953;SDS011;3516;47.980;8.808;2023-04-25T20:03:46;0.80;;;0.80;;
6953;SDS011;3516;47.980;8.808;2023-04-25T20:06:15;0.75;;;0.75;;
6953;SDS011;3516;47.980;8.808;2023-04-25T20:08:43;0.90;;;0.90;;
6953;SDS011;3516;47.980;8.808;2023-04-25T20:11:11;0.90;;;0.90;;
6953;SDS011;3516;47.980;8.808;2023-04-25T20:13:38;0.90;;;0.80;;
6953;SDS011;3516;47.980;8.808;2023-04-25T20:16:05;0.70;;;0.70;;
6953;SDS011;3516;47.980;8.808;2023-04-25T20:18:32;0.80;;;0.80;;
6953;SDS011;3516;47.980;8.808;2023-04-25T20:20:59;0.77;;;0.77;;
6953;SDS011;3516;47.980;8.808;2023-04-25T20:23:26;0.77;;;0.77;;
6953;SDS011;3516;47.980;8.808;2023-04-25T20:25:54;0.80;;;0.80;;
6953;SDS011;3516;47.980;8.808;2023-04-25T20:28:21;0.95;;;0.80;;
6953;SDS011;3516;47.980;8.808;2023-04-25T20:30:48;0.80;;;0.80;;
6953;SDS011;3516;47.980;8.808;2023-04-25T20:33:15;0.85;;;0.85;;
6953;SDS011;3516;47.980;8.808;2023-04-25T20:35:42;1.33;;;1.33;;
6953;SDS011;3516;47.980;8.808;2023-04-25T20:38:10;1.52;;;1.42;;
6953;SDS011;3516;47.980;8.808;2023-04-25T20:40:36;2.10;;;1.63;;
6953;SDS011;3516;47.980;8.808;2023-04-25T20:43:05;1.75;;;1.65;;
6953;SDS011;3516;47.980;8.808;2023-04-25T20:45:35;1.60;;;1.55;;
6953;SDS011;3516;47.980;8.808;2023-04-25T20:48:01;1.25;;;1.25;;
6953;SDS011;3516;47.980;8.808;2023-04-25T20:50:29;1.40;;;1.40;;
6953;SDS011;3516;47.980;8.808;2023-04-25T20:52:57;1.23;;;1.23;;
6953;SDS011;3516;47.980;8.808;2023-04-25T20:55:23;1.30;;;1.30;;
6953;SDS011;3516;47.980;8.808;2023-04-25T20:57:51;0.98;;;0.98;;
6953;SDS011;3516;47.980;8.808;2023-04-25T21:00:19;1.33;;;1.33;;
6953;SDS011;3516;47.980;8.808;2023-04-25T21:02:51;1.10;;;1.10;;
6953;SDS011;3516;47.980;8.808;2023-04-25T21:05:18;0.98;;;0.98;;
6953;SDS011;3516;47.980;8.808;2023-04-25T21:07:46;1.10;;;1.10;;
6953;SDS011;3516;47.980;8.808;2023-04-25T21:10:12;1.05;;;1.05;;
6953;SDS011;3516;47.980;8.808;2023-04-25T21:12:39;1.10;;;1.10;;
6953;SDS011;3516;47.980;8.808;2023-04-25T21:15:08;1.20;;;1.20;;
6953;SDS011;3516;47.980;8.808;2023-04-25T21:17:37;1.10;;;1.10;;
